sensor_id;sensor_type;location;lat;lon;timestamp;P1;durP1;ratioP1;P2;durP2;ratioP2
74963;SDS011;63521;51.900;4.748;2022-11-14T00:00:04;5.97;;;3.13;;
74963;SDS011;63521;51.900;4.748;2022-11-14T00:02:31;4.72;;;2.90;;
74963;SDS011;63521;51.900;4.748;2022-11-14T00:04:56;5.15;;;3.45;;
74963;SDS011;63521;51.900;4.748;2022-11-14T00:07:21;5.45;;;3.15;;
74963;SDS011;63521;51.900;4.748;2022-11-14T00:09:47;4.32;;;2.90;;
74963;SDS011;63521;51.900;4.748;2022-11-14T00:12:12;5.47;;;3.25;;
74963;SDS011;63521;51.900;4.748;2022-11-14T00:14:37;5.60;;;2.97;;
74963;SDS011;63521;51.900;4.748;2022-11-14T00:17:03;4.82;;;2.97;;
74963;SDS011;63521;51.900;4.748;2022-11-14T00:19:29;5.95;;;3.05;;
74963;SDS011;63521;51.900;4.748;2022-11-14T00:21:54;5.68;;;3.28;;
74963;SDS011;63521;51.900;4.748;2022-11-14T00:24:20;7.10;;;3.35;;
74963;SDS011;63521;51.900;4.748;2022-11-14T00:26:46;5.20;;;2.92;;
74963;SDS011;63521;51.900;4.748;2022-11-14T00:29:12;5.32;;;3.10;;
74963;SDS011;63521;51.900;4.748;2022-11-14T00:31:40;5.45;;;3.10;;
74963;SDS011;63521;51.900;4.748;2022-11-14T00:34:06;4.55;;;2.97;;
74963;SDS011;63521;51.900;4.748;2022-11-14T00:36:32;4.75;;;2.95;;
74963;SDS011;63521;51.900;4.748;2022-11-14T00:38:57;4.90;;;2.92;;
74963;SDS011;63521;51.900;4.748;2022-11-14T00:41:23;5.63;;;2.78;;
74963;SDS011;63521;51.900;4.748;2022-11-14T00:43:49;4.95;;;2.85;;
74963;SDS011;63521;51.900;4.748;2022-11-14T00:46:14;4.65;;;2.85;;
74963;SDS011;63521;51.900;4.748;2022-11-14T00:48:39;4.72;;;2.92;;
74963;SDS011;63521;51.900;4.748;2022-11-14T00:51:05;4.80;;;3.17;;
74963;SDS011;63521;51.900;4.748;2022-11-14T00:53:30;5.10;;;3.17;;
74963;SDS011;63521;51.900;4.748;2022-11-14T00:55:56;4.82;;;3.15;;
74963;SDS011;63521;51.900;4.748;2022-11-14T00:58:21;4.57;;;3.05;;
74963;SDS011;63521;51.900;4.748;2022-11-14T01:00:47;5.18;;;2.95;;
74963;SDS011;63521;51.900;4.748;2022-11-14T01:03:12;5.50;;;3.00;;
74963;SDS011;63521;51.900;4.748;2022-11-14T01:05:41;6.47;;;3.22;;
74963;SDS011;63521;51.900;4.748;2022-11-14T01:08:10;4.72;;;2.88;;
74963;SDS011;63521;51.900;4.748;2022-11-14T01:10:40;5.90;;;3.20;;
74963;SDS011;63521;51.900;4.748;2022-11-14T01:13:06;4.38;;;2.45;;
74963;SDS011;63521;51.900;4.748;2022-11-14T01:15:31;5.47;;;3.05;;
74963;SDS011;63521;51.900;4.748;2022-11-14T01:17:57;5.13;;;2.80;;
74963;SDS011;63521;51.900;4.748;2022-11-14T01:20:22;5.20;;;3.00;;
74963;SDS011;63521;51.900;4.748;2022-11-14T01:22:48;6.32;;;3.28;;
74963;SDS011;63521;51.900;4.748;2022-11-14T01:25:13;4.90;;;2.97;;
74963;SDS011;63521;51.900;4.748;2022-11-14T01:27:39;5.10;;;3.08;;
74963;SDS011;63521;51.900;4.748;2022-11-14T01:30:04;4.82;;;2.72;;
74963;SDS011;63521;51.900;4.748;2022-11-14T01:32:30;5.45;;;2.95;;
74963;SDS011;63521;51.900;4.748;2022-11-14T01:34:56;4.78;;;3.15;;
74963;SDS011;63521;51.900;4.748;2022-11-14T01:37:21;5.82;;;3.00;;
74963;SDS011;63521;51.900;4.748;2022-11-14T01:39:46;4.50;;;2.50;;
74963;SDS011;63521;51.900;4.748;2022-11-14T01:42:12;4.85;;;2.60;;
74963;SDS011;63521;51.900;4.748;2022-11-14T01:44:45;4.82;;;2.90;;
74963;SDS011;63521;51.900;4.748;2022-11-14T01:47:12;4.90;;;2.90;;
74963;SDS011;63521;51.900;4.748;2022-11-14T01:49:42;4.97;;;2.88;;
74963;SDS011;63521;51.900;4.748;2022-11-14T01:52:11;4.05;;;2.58;;
74963;SDS011;63521;51.900;4.748;2022-11-14T01:54:49;4.70;;;2.80;;
74963;SDS011;63521;51.900;4.748;2022-11-14T01:57:17;4.05;;;2.75;;
74963;SDS011;63521;51.900;4.748;2022-11-14T01:59:47;5.63;;;2.92;;
74963;SDS011;63521;51.900;4.748;2022-11-14T02:02:16;3.92;;;2.60;;
74963;SDS011;63521;51.900;4.748;2022-11-14T02:04:45;4.13;;;2.45;;
74963;SDS011;63521;51.900;4.748;2022-11-14T02:07:13;4.78;;;2.70;;
74963;SDS011;63521;51.900;4.748;2022-11-14T02:09:40;4.40;;;2.60;;
74963;SDS011;63521;51.900;4.748;2022-11-14T02:12:07;4.28;;;2.70;;
74963;SDS011;63521;51.900;4.748;2022-11-14T02:14:34;4.25;;;2.80;;
74963;SDS011;63521;51.900;4.748;2022-11-14T02:17:00;5.15;;;2.42;;
74963;SDS011;63521;51.900;4.748;2022-11-14T02:19:39;3.90;;;2.63;;
74963;SDS011;63521;51.900;4.748;2022-11-14T02:22:05;4.93;;;2.78;;
74963;SDS011;63521;51.900;4.748;2022-11-14T02:24:30;5.18;;;2.60;;
74963;SDS011;63521;51.900;4.748;2022-11-14T02:26:56;5.18;;;2.72;;
74963;SDS011;63521;51.900;4.748;2022-11-14T02:29:21;5.00;;;2.85;;
74963;SDS011;63521;51.900;4.748;2022-11-14T02:31:47;4.80;;;2.65;;
74963;SDS011;63521;51.900;4.748;2022-11-14T02:34:12;4.15;;;2.72;;
74963;SDS011;63521;51.900;4.748;2022-11-14T02:36:40;7.60;;;2.85;;
74963;SDS011;63521;51.900;4.748;2022-11-14T02:39:06;5.03;;;2.83;;
74963;SDS011;63521;51.900;4.748;2022-11-14T02:41:31;5.07;;;2.83;;
74963;SDS011;63521;51.900;4.748;2022-11-14T02:43:56;4.80;;;2.67;;
74963;SDS011;63521;51.900;4.748;2022-11-14T02:46:22;6.20;;;2.97;;
74963;SDS011;63521;51.900;4.748;2022-11-14T02:48:47;4.82;;;3.25;;
74963;SDS011;63521;51.900;4.748;2022-11-14T02:51:12;4.97;;;2.97;;
74963;SDS011;63521;51.900;4.748;2022-11-14T02:53:38;4.75;;;2.90;;
74963;SDS011;63521;51.900;4.748;2022-11-14T02:56:03;5.40;;;2.75;;
74963;SDS011;63521;51.900;4.748;2022-11-14T02:58:29;5.65;;;3.13;;
74963;SDS011;63521;51.900;4.748;2022-11-14T03:00:54;6.20;;;2.97;;
74963;SDS011;63521;51.900;4.748;2022-11-14T03:03:20;5.80;;;3.08;;
74963;SDS011;63521;51.900;4.748;2022-11-14T03:05:45;5.53;;;3.00;;
74963;SDS011;63521;51.900;4.748;2022-11-14T03:08:10;6.78;;;3.53;;
74963;SDS011;63521;51.900;4.748;2022-11-14T03:10:36;5.30;;;3.13;;
74963;SDS011;63521;51.900;4.748;2022-11-14T03:13:01;4.82;;;2.78;;
74963;SDS011;63521;51.900;4.748;2022-11-14T03:15:26;4.60;;;2.90;;
74963;SDS011;63521;51.900;4.748;2022-11-14T03:17:52;6.55;;;3.13;;
74963;SDS011;63521;51.900;4.748;2022-11-14T03:20:17;5.45;;;3.17;;
74963;SDS011;63521;51.900;4.748;2022-11-14T03:22:42;4.72;;;3.17;;
74963;SDS011;63521;51.900;4.748;2022-11-14T03:25:08;5.03;;;2.88;;
74963;SDS011;63521;51.900;4.748;2022-11-14T03:27:33;5.93;;;2.88;;
74963;SDS011;63521;51.900;4.748;2022-11-14T03:29:59;5.13;;;2.95;;
74963;SDS011;63521;51.900;4.748;2022-11-14T03:32:24;7.60;;;3.20;;
74963;SDS011;63521;51.900;4.748;2022-11-14T03:34:49;4.43;;;2.85;;
74963;SDS011;63521;51.900;4.748;2022-11-14T03:37:15;6.20;;;3.40;;
74963;SDS011;63521;51.900;4.748;2022-11-14T03:39:40;5.50;;;2.90;;
74963;SDS011;63521;51.900;4.748;2022-11-14T03:42:06;5.45;;;2.97;;
74963;SDS011;63521;51.900;4.748;2022-11-14T03:44:31;4.53;;;2.60;;
74963;SDS011;63521;51.900;4.748;2022-11-14T03:46:56;5.13;;;2.90;;
74963;SDS011;63521;51.900;4.748;2022-11-14T03:49:22;6.97;;;2.97;;
74963;SDS011;63521;51.900;4.748;2022-11-14T03:51:47;5.28;;;2.90;;
74963;SDS011;63521;51.900;4.748;2022-11-14T03:54:12;4.20;;;2.97;;
74963;SDS011;63521;51.900;4.748;2022-11-14T03:56:38;6.53;;;2.88;;
74963;SDS011;63521;51.900;4.748;2022-11-14T03:59:03;5.50;;;2.97;;
74963;SDS011;63521;51.900;4.748;2022-11-14T04:01:29;5.55;;;3.05;;
74963;SDS011;63521;51.900;4.748;2022-11-14T04:03:54;5.95;;;3.47;;
74963;SDS011;63521;51.900;4.748;2022-11-14T04:06:20;5.28;;;2.85;;
74963;SDS011;63521;51.900;4.748;2022-11-14T04:08:45;4.15;;;2.90;;
74963;SDS011;63521;51.900;4.748;2022-11-14T04:11:10;6.93;;;3.38;;
74963;SDS011;63521;51.900;4.748;2022-11-14T04:13:36;6.30;;;2.97;;
74963;SDS011;63521;51.900;4.748;2022-11-14T04:16:01;6.47;;;3.10;;
74963;SDS011;63521;51.900;4.748;2022-11-14T04:18:27;6.68;;;3.35;;
74963;SDS011;63521;51.900;4.748;2022-11-14T04:20:52;6.05;;;3.17;;
74963;SDS011;63521;51.900;4.748;2022-11-14T04:23:18;4.13;;;2.67;;
74963;SDS011;63521;51.900;4.748;2022-11-14T04:25:43;6.82;;;3.55;;
74963;SDS011;63521;51.900;4.748;2022-11-14T04:28:09;7.45;;;3.35;;
74963;SDS011;63521;51.900;4.748;2022-11-14T04:30:35;5.88;;;3.28;;
74963;SDS011;63521;51.900;4.748;2022-11-14T04:33:00;6.22;;;3.13;;
74963;SDS011;63521;51.900;4.748;2022-11-14T04:35:26;5.82;;;3.20;;
74963;SDS011;63521;51.900;4.748;2022-11-14T04:37:51;5.93;;;3.10;;
74963;SDS011;63521;51.900;4.748;2022-11-14T04:40:16;7.38;;;3.30;;
74963;SDS011;63521;51.900;4.748;2022-11-14T04:42:42;7.15;;;3.65;;
74963;SDS011;63521;51.900;4.748;2022-11-14T04:45:08;6.03;;;3.10;;
74963;SDS011;63521;51.900;4.748;2022-11-14T04:47:33;7.57;;;3.78;;
74963;SDS011;63521;51.900;4.748;2022-11-14T04:49:59;7.22;;;3.85;;
74963;SDS011;63521;51.900;4.748;2022-11-14T04:52:24;6.93;;;3.45;;
74963;SDS011;63521;51.900;4.748;2022-11-14T04:54:50;8.15;;;3.40;;
74963;SDS011;63521;51.900;4.748;2022-11-14T04:57:15;6.88;;;3.58;;
74963;SDS011;63521;51.900;4.748;2022-11-14T04:59:41;5.18;;;3.05;;
74963;SDS011;63521;51.900;4.748;2022-11-14T05:02:07;5.95;;;3.33;;
74963;SDS011;63521;51.900;4.748;2022-11-14T05:04:32;6.60;;;3.35;;
74963;SDS011;63521;51.900;4.748;2022-11-14T05:06:58;6.75;;;3.30;;
74963;SDS011;63521;51.900;4.748;2022-11-14T05:09:23;7.13;;;3.30;;
74963;SDS011;63521;51.900;4.748;2022-11-14T05:11:48;5.60;;;3.10;;
74963;SDS011;63521;51.900;4.748;2022-11-14T05:14:14;6.40;;;3.25;;
74963;SDS011;63521;51.900;4.748;2022-11-14T05:16:39;7.18;;;3.55;;
74963;SDS011;63521;51.900;4.748;2022-11-14T05:19:05;9.35;;;3.83;;
74963;SDS011;63521;51.900;4.748;2022-11-14T05:21:30;6.32;;;3.65;;
74963;SDS011;63521;51.900;4.748;2022-11-14T05:23:55;6.35;;;3.40;;
74963;SDS011;63521;51.900;4.748;2022-11-14T05:26:21;6.80;;;3.45;;
74963;SDS011;63521;51.900;4.748;2022-11-14T05:28:46;7.75;;;3.95;;
74963;SDS011;63521;51.900;4.748;2022-11-14T05:31:13;6.50;;;3.47;;
74963;SDS011;63521;51.900;4.748;2022-11-14T05:33:42;6.65;;;3.08;;
74963;SDS011;63521;51.900;4.748;2022-11-14T05:36:08;7.43;;;3.65;;
74963;SDS011;63521;51.900;4.748;2022-11-14T05:38:36;7.97;;;3.70;;
74963;SDS011;63521;51.900;4.748;2022-11-14T05:41:05;7.35;;;3.65;;
74963;SDS011;63521;51.900;4.748;2022-11-14T05:43:32;7.78;;;3.67;;
74963;SDS011;63521;51.900;4.748;2022-11-14T05:45:58;8.40;;;3.38;;
74963;SDS011;63521;51.900;4.748;2022-11-14T05:48:27;9.43;;;3.85;;
74963;SDS011;63521;51.900;4.748;2022-11-14T05:50:59;7.85;;;3.75;;
74963;SDS011;63521;51.900;4.748;2022-11-14T05:53:26;8.02;;;3.92;;
74963;SDS011;63521;51.900;4.748;2022-11-14T05:55:52;7.78;;;3.80;;
74963;SDS011;63521;51.900;4.748;2022-11-14T05:58:18;9.23;;;4.10;;
74963;SDS011;63521;51.900;4.748;2022-11-14T06:00:43;10.07;;;4.35;;
74963;SDS011;63521;51.900;4.748;2022-11-14T06:03:09;6.15;;;3.65;;
74963;SDS011;63521;51.900;4.748;2022-11-14T06:05:35;8.10;;;3.22;;
74963;SDS011;63521;51.900;4.748;2022-11-14T06:08:01;7.88;;;3.38;;
74963;SDS011;63521;51.900;4.748;2022-11-14T06:10:27;6.32;;;3.58;;
74963;SDS011;63521;51.900;4.748;2022-11-14T06:12:53;10.95;;;3.95;;
74963;SDS011;63521;51.900;4.748;2022-11-14T06:15:18;6.07;;;3.03;;
74963;SDS011;63521;51.900;4.748;2022-11-14T06:17:43;7.88;;;3.55;;
74963;SDS011;63521;51.900;4.748;2022-11-14T06:20:09;7.72;;;4.10;;
74963;SDS011;63521;51.900;4.748;2022-11-14T06:22:37;7.68;;;3.78;;
74963;SDS011;63521;51.900;4.748;2022-11-14T06:25:06;7.25;;;3.45;;
74963;SDS011;63521;51.900;4.748;2022-11-14T06:27:31;7.28;;;3.35;;
74963;SDS011;63521;51.900;4.748;2022-11-14T06:29:57;6.80;;;3.38;;
74963;SDS011;63521;51.900;4.748;2022-11-14T06:32:22;8.60;;;3.67;;
74963;SDS011;63521;51.900;4.748;2022-11-14T06:56:45;6.07;;;3.10;;
74963;SDS011;63521;51.900;4.748;2022-11-14T06:59:19;6.30;;;3.28;;
74963;SDS011;63521;51.900;4.748;2022-11-14T07:01:44;6.22;;;3.03;;
74963;SDS011;63521;51.900;4.748;2022-11-14T07:04:10;6.88;;;3.25;;
74963;SDS011;63521;51.900;4.748;2022-11-14T07:06:35;7.07;;;2.97;;
74963;SDS011;63521;51.900;4.748;2022-11-14T07:09:01;6.80;;;3.22;;
74963;SDS011;63521;51.900;4.748;2022-11-14T07:11:26;7.05;;;3.42;;
74963;SDS011;63521;51.900;4.748;2022-11-14T07:16:27;7.38;;;3.53;;
74963;SDS011;63521;51.900;4.748;2022-11-14T07:19:00;7.97;;;3.65;;
74963;SDS011;63521;51.900;4.748;2022-11-14T07:21:26;7.28;;;3.45;;
74963;SDS011;63521;51.900;4.748;2022-11-14T07:23:53;8.32;;;3.35;;
74963;SDS011;63521;51.900;4.748;2022-11-14T07:26:19;5.63;;;3.10;;
74963;SDS011;63521;51.900;4.748;2022-11-14T07:28:44;7.95;;;3.20;;
74963;SDS011;63521;51.900;4.748;2022-11-14T07:31:13;8.02;;;3.40;;
74963;SDS011;63521;51.900;4.748;2022-11-14T07:33:40;5.70;;;2.97;;
74963;SDS011;63521;51.900;4.748;2022-11-14T07:36:06;9.23;;;3.85;;
74963;SDS011;63521;51.900;4.748;2022-11-14T07:38:33;6.32;;;3.38;;
74963;SDS011;63521;51.900;4.748;2022-11-14T07:41:00;7.82;;;3.42;;
74963;SDS011;63521;51.900;4.748;2022-11-14T07:43:27;6.65;;;3.17;;
74963;SDS011;63521;51.900;4.748;2022-11-14T07:45:52;6.38;;;2.78;;
74963;SDS011;63521;51.900;4.748;2022-11-14T07:48:18;7.05;;;3.03;;
74963;SDS011;63521;51.900;4.748;2022-11-14T07:50:45;6.38;;;3.10;;
74963;SDS011;63521;51.900;4.748;2022-11-14T07:53:11;6.45;;;3.17;;
74963;SDS011;63521;51.900;4.748;2022-11-14T07:55:37;7.20;;;3.55;;
74963;SDS011;63521;51.900;4.748;2022-11-14T07:58:03;6.18;;;2.95;;
74963;SDS011;63521;51.900;4.748;2022-11-14T08:00:28;7.65;;;3.63;;
74963;SDS011;63521;51.900;4.748;2022-11-14T08:02:54;8.00;;;3.30;;
74963;SDS011;63521;51.900;4.748;2022-11-14T08:05:19;7.72;;;3.65;;
74963;SDS011;63521;51.900;4.748;2022-11-14T08:07:45;7.60;;;3.22;;
74963;SDS011;63521;51.900;4.748;2022-11-14T08:10:10;8.55;;;3.42;;
74963;SDS011;63521;51.900;4.748;2022-11-14T08:12:37;7.65;;;3.38;;
74963;SDS011;63521;51.900;4.748;2022-11-14T08:15:07;5.35;;;2.90;;
74963;SDS011;63521;51.900;4.748;2022-11-14T08:17:33;6.03;;;3.10;;
74963;SDS011;63521;51.900;4.748;2022-11-14T08:19:59;7.00;;;3.50;;
74963;SDS011;63521;51.900;4.748;2022-11-14T08:22:24;7.60;;;3.42;;
74963;SDS011;63521;51.900;4.748;2022-11-14T08:24:50;6.85;;;3.05;;
74963;SDS011;63521;51.900;4.748;2022-11-14T08:27:15;7.30;;;3.08;;
74963;SDS011;63521;51.900;4.748;2022-11-14T08:29:41;5.65;;;2.67;;
74963;SDS011;63521;51.900;4.748;2022-11-14T08:32:06;6.18;;;3.25;;
74963;SDS011;63521;51.900;4.748;2022-11-14T08:34:31;5.95;;;2.90;;
74963;SDS011;63521;51.900;4.748;2022-11-14T08:36:57;5.78;;;2.83;;
74963;SDS011;63521;51.900;4.748;2022-11-14T08:39:23;6.13;;;2.97;;
74963;SDS011;63521;51.900;4.748;2022-11-14T08:41:48;7.38;;;3.00;;
74963;SDS011;63521;51.900;4.748;2022-11-14T08:44:13;7.15;;;3.13;;
74963;SDS011;63521;51.900;4.748;2022-11-14T08:46:39;6.95;;;3.35;;
74963;SDS011;63521;51.900;4.748;2022-11-14T08:49:04;5.07;;;2.92;;
74963;SDS011;63521;51.900;4.748;2022-11-14T08:51:30;6.40;;;3.10;;
74963;SDS011;63521;51.900;4.748;2022-11-14T08:54:01;5.78;;;3.13;;
74963;SDS011;63521;51.900;4.748;2022-11-14T08:57:26;5.45;;;2.75;;
74963;SDS011;63521;51.900;4.748;2022-11-14T08:59:51;5.70;;;2.55;;
74963;SDS011;63521;51.900;4.748;2022-11-14T09:02:17;6.68;;;3.13;;
74963;SDS011;63521;51.900;4.748;2022-11-14T09:04:42;6.85;;;3.05;;
74963;SDS011;63521;51.900;4.748;2022-11-14T09:07:08;5.68;;;2.67;;
74963;SDS011;63521;51.900;4.748;2022-11-14T09:09:33;6.63;;;3.17;;
74963;SDS011;63521;51.900;4.748;2022-11-14T09:11:58;6.57;;;3.03;;
74963;SDS011;63521;51.900;4.748;2022-11-14T09:14:24;5.68;;;2.90;;
74963;SDS011;63521;51.900;4.748;2022-11-14T09:16:52;6.43;;;3.17;;
74963;SDS011;63521;51.900;4.748;2022-11-14T09:19:17;4.50;;;2.55;;
74963;SDS011;63521;51.900;4.748;2022-11-14T09:21:43;5.40;;;2.97;;
74963;SDS011;63521;51.900;4.748;2022-11-14T09:24:09;7.72;;;4.45;;
74963;SDS011;63521;51.900;4.748;2022-11-14T09:26:34;12.50;;;6.00;;
74963;SDS011;63521;51.900;4.748;2022-11-14T09:34:07;13.82;;;5.22;;
74963;SDS011;63521;51.900;4.748;2022-11-14T09:36:32;9.23;;;4.68;;
74963;SDS011;63521;51.900;4.748;2022-11-14T09:41:44;7.57;;;4.53;;
74963;SDS011;63521;51.900;4.748;2022-11-14T09:56:20;6.65;;;3.90;;
74963;SDS011;63521;51.900;4.748;2022-11-14T09:58:48;8.23;;;3.80;;
74963;SDS011;63521;51.900;4.748;2022-11-14T10:04:19;5.78;;;3.50;;
74963;SDS011;63521;51.900;4.748;2022-11-14T10:07:08;5.80;;;3.10;;
74963;SDS011;63521;51.900;4.748;2022-11-14T10:12:19;6.15;;;3.42;;
74963;SDS011;63521;51.900;4.748;2022-11-14T10:31:21;6.55;;;3.63;;
74963;SDS011;63521;51.900;4.748;2022-11-14T10:34:04;5.70;;;3.00;;
74963;SDS011;63521;51.900;4.748;2022-11-14T10:39:29;6.07;;;3.30;;
74963;SDS011;63521;51.900;4.748;2022-11-14T10:42:00;4.32;;;3.13;;
74963;SDS011;63521;51.900;4.748;2022-11-14T10:44:37;7.22;;;3.42;;
74963;SDS011;63521;51.900;4.748;2022-11-14T10:47:09;5.03;;;3.05;;
74963;SDS011;63521;51.900;4.748;2022-11-14T10:49:38;5.05;;;3.13;;
74963;SDS011;63521;51.900;4.748;2022-11-14T10:52:05;5.38;;;2.83;;
74963;SDS011;63521;51.900;4.748;2022-11-14T10:54:38;4.85;;;3.10;;
74963;SDS011;63521;51.900;4.748;2022-11-14T10:57:12;3.90;;;2.65;;
74963;SDS011;63521;51.900;4.748;2022-11-14T10:59:39;5.20;;;3.00;;
74963;SDS011;63521;51.900;4.748;2022-11-14T11:02:07;6.60;;;3.17;;
74963;SDS011;63521;51.900;4.748;2022-11-14T11:04:33;4.78;;;3.05;;
74963;SDS011;63521;51.900;4.748;2022-11-14T11:09:32;6.78;;;2.70;;
74963;SDS011;63521;51.900;4.748;2022-11-14T11:12:21;6.18;;;3.00;;
74963;SDS011;63521;51.900;4.748;2022-11-14T11:14:49;6.03;;;3.15;;
74963;SDS011;63521;51.900;4.748;2022-11-14T11:17:32;4.50;;;2.90;;
74963;SDS011;63521;51.900;4.748;2022-11-14T11:20:19;6.93;;;3.10;;
74963;SDS011;63521;51.900;4.748;2022-11-14T11:22:49;4.95;;;3.22;;
74963;SDS011;63521;51.900;4.748;2022-11-14T11:25:27;5.75;;;3.05;;
74963;SDS011;63521;51.900;4.748;2022-11-14T11:30:55;4.90;;;2.70;;
74963;SDS011;63521;51.900;4.748;2022-11-14T11:33:22;4.65;;;2.85;;
74963;SDS011;63521;51.900;4.748;2022-11-14T11:35:58;5.05;;;2.83;;
74963;SDS011;63521;51.900;4.748;2022-11-14T11:47:23;5.45;;;3.30;;
74963;SDS011;63521;51.900;4.748;2022-11-14T12:04:29;5.03;;;2.65;;
74963;SDS011;63521;51.900;4.748;2022-11-14T12:07:01;5.70;;;2.75;;
74963;SDS011;63521;51.900;4.748;2022-11-14T12:09:39;5.60;;;3.20;;
74963;SDS011;63521;51.900;4.748;2022-11-14T12:12:24;5.03;;;3.05;;
74963;SDS011;63521;51.900;4.748;2022-11-14T12:31:18;4.65;;;2.63;;
74963;SDS011;63521;51.900;4.748;2022-11-14T12:41:02;7.65;;;4.78;;
74963;SDS011;63521;51.900;4.748;2022-11-14T13:35:47;5.85;;;3.35;;
74963;SDS011;63521;51.900;4.748;2022-11-14T13:44:34;7.03;;;3.10;;
74963;SDS011;63521;51.900;4.748;2022-11-14T13:53:25;5.60;;;3.35;;
74963;SDS011;63521;51.900;4.748;2022-11-14T14:12:22;4.93;;;2.90;;
74963;SDS011;63521;51.900;4.748;2022-11-14T14:15:19;4.72;;;3.05;;
74963;SDS011;63521;51.900;4.748;2022-11-14T14:21:31;6.70;;;3.17;;
74963;SDS011;63521;51.900;4.748;2022-11-14T14:24:19;5.43;;;3.08;;
74963;SDS011;63521;51.900;4.748;2022-11-14T14:35:26;5.20;;;3.10;;
74963;SDS011;63521;51.900;4.748;2022-11-14T14:38:25;5.55;;;3.03;;
74963;SDS011;63521;51.900;4.748;2022-11-14T14:41:02;5.07;;;3.08;;
74963;SDS011;63521;51.900;4.748;2022-11-14T14:43:42;5.03;;;3.15;;
74963;SDS011;63521;51.900;4.748;2022-11-14T14:46:45;4.75;;;2.83;;
74963;SDS011;63521;51.900;4.748;2022-11-14T14:49:31;4.20;;;2.63;;
74963;SDS011;63521;51.900;4.748;2022-11-14T14:52:33;6.32;;;2.85;;
74963;SDS011;63521;51.900;4.748;2022-11-14T14:55:34;4.20;;;2.63;;
74963;SDS011;63521;51.900;4.748;2022-11-14T14:58:21;4.07;;;2.70;;
74963;SDS011;63521;51.900;4.748;2022-11-14T15:00:56;5.35;;;2.85;;
74963;SDS011;63521;51.900;4.748;2022-11-14T15:03:22;4.13;;;2.63;;
74963;SDS011;63521;51.900;4.748;2022-11-14T15:05:55;5.07;;;2.70;;
74963;SDS011;63521;51.900;4.748;2022-11-14T15:08:21;4.65;;;2.90;;
74963;SDS011;63521;51.900;4.748;2022-11-14T15:10:47;4.55;;;2.65;;
74963;SDS011;63521;51.900;4.748;2022-11-14T15:13:13;4.43;;;2.70;;
74963;SDS011;63521;51.900;4.748;2022-11-14T15:15:52;5.40;;;2.70;;
74963;SDS011;63521;51.900;4.748;2022-11-14T15:18:30;3.85;;;2.40;;
74963;SDS011;63521;51.900;4.748;2022-11-14T15:21:32;3.78;;;2.50;;
74963;SDS011;63521;51.900;4.748;2022-11-14T15:26:35;4.90;;;2.95;;
74963;SDS011;63521;51.900;4.748;2022-11-14T15:29:23;6.88;;;3.20;;
74963;SDS011;63521;51.900;4.748;2022-11-14T15:31:51;4.78;;;2.95;;
74963;SDS011;63521;51.900;4.748;2022-11-14T15:34:36;5.53;;;3.47;;
74963;SDS011;63521;51.900;4.748;2022-11-14T15:37:16;5.90;;;3.38;;
74963;SDS011;63521;51.900;4.748;2022-11-14T15:39:45;5.85;;;3.42;;
74963;SDS011;63521;51.900;4.748;2022-11-14T15:42:18;8.00;;;3.90;;
74963;SDS011;63521;51.900;4.748;2022-11-14T15:44:53;8.32;;;3.95;;
74963;SDS011;63521;51.900;4.748;2022-11-14T15:47:26;8.35;;;4.05;;
74963;SDS011;63521;51.900;4.748;2022-11-14T15:49:59;8.05;;;4.20;;
74963;SDS011;63521;51.900;4.748;2022-11-14T15:57:59;7.07;;;3.65;;
74963;SDS011;63521;51.900;4.748;2022-11-14T16:00:25;8.02;;;4.22;;
74963;SDS011;63521;51.900;4.748;2022-11-14T16:02:51;8.40;;;4.22;;
74963;SDS011;63521;51.900;4.748;2022-11-14T16:05:20;7.28;;;4.00;;
74963;SDS011;63521;51.900;4.748;2022-11-14T16:07:54;8.98;;;3.97;;
74963;SDS011;63521;51.900;4.748;2022-11-14T16:10:24;8.23;;;4.25;;
74963;SDS011;63521;51.900;4.748;2022-11-14T16:12:51;8.15;;;4.00;;
74963;SDS011;63521;51.900;4.748;2022-11-14T16:15:16;7.95;;;4.30;;
74963;SDS011;63521;51.900;4.748;2022-11-14T16:17:43;7.30;;;3.78;;
74963;SDS011;63521;51.900;4.748;2022-11-14T16:20:12;8.40;;;5.10;;
74963;SDS011;63521;51.900;4.748;2022-11-14T16:22:43;9.13;;;4.47;;
74963;SDS011;63521;51.900;4.748;2022-11-14T16:25:16;8.95;;;4.40;;
74963;SDS011;63521;51.900;4.748;2022-11-14T16:27:43;8.60;;;4.70;;
74963;SDS011;63521;51.900;4.748;2022-11-14T16:30:13;10.25;;;4.97;;
74963;SDS011;63521;51.900;4.748;2022-11-14T16:32:39;9.10;;;4.50;;
74963;SDS011;63521;51.900;4.748;2022-11-14T16:35:15;8.45;;;4.65;;
74963;SDS011;63521;51.900;4.748;2022-11-14T16:37:45;9.68;;;4.55;;
74963;SDS011;63521;51.900;4.748;2022-11-14T16:40:12;8.25;;;4.53;;
74963;SDS011;63521;51.900;4.748;2022-11-14T16:42:39;9.25;;;4.88;;
74963;SDS011;63521;51.900;4.748;2022-11-14T16:45:04;8.27;;;4.63;;
74963;SDS011;63521;51.900;4.748;2022-11-14T16:47:30;11.07;;;4.78;;
74963;SDS011;63521;51.900;4.748;2022-11-14T16:49:56;10.65;;;4.97;;
74963;SDS011;63521;51.900;4.748;2022-11-14T16:52:22;10.02;;;4.57;;
74963;SDS011;63521;51.900;4.748;2022-11-14T16:54:47;9.23;;;4.88;;
74963;SDS011;63521;51.900;4.748;2022-11-14T16:57:13;10.13;;;5.18;;
74963;SDS011;63521;51.900;4.748;2022-11-14T16:59:38;10.18;;;4.65;;
74963;SDS011;63521;51.900;4.748;2022-11-14T17:02:04;10.50;;;5.25;;
74963;SDS011;63521;51.900;4.748;2022-11-14T17:04:29;9.82;;;4.82;;
74963;SDS011;63521;51.900;4.748;2022-11-14T17:06:54;7.72;;;4.72;;
74963;SDS011;63521;51.900;4.748;2022-11-14T17:09:20;8.77;;;4.63;;
74963;SDS011;63521;51.900;4.748;2022-11-14T17:11:45;9.48;;;4.47;;
74963;SDS011;63521;51.900;4.748;2022-11-14T17:14:11;8.88;;;4.45;;
74963;SDS011;63521;51.900;4.748;2022-11-14T17:16:36;9.13;;;5.38;;
74963;SDS011;63521;51.900;4.748;2022-11-14T17:19:01;8.27;;;4.32;;
74963;SDS011;63521;51.900;4.748;2022-11-14T17:21:27;8.80;;;4.55;;
74963;SDS011;63521;51.900;4.748;2022-11-14T17:23:56;8.57;;;4.57;;
74963;SDS011;63521;51.900;4.748;2022-11-14T17:26:24;8.70;;;4.28;;
74963;SDS011;63521;51.900;4.748;2022-11-14T17:28:49;7.75;;;4.45;;
74963;SDS011;63521;51.900;4.748;2022-11-14T17:31:15;8.25;;;4.00;;
74963;SDS011;63521;51.900;4.748;2022-11-14T17:33:41;7.63;;;4.22;;
74963;SDS011;63521;51.900;4.748;2022-11-14T17:36:07;6.07;;;3.47;;
74963;SDS011;63521;51.900;4.748;2022-11-14T17:38:34;8.00;;;3.80;;
74963;SDS011;63521;51.900;4.748;2022-11-14T17:41:00;7.45;;;4.22;;
74963;SDS011;63521;51.900;4.748;2022-11-14T17:43:29;8.38;;;4.10;;
74963;SDS011;63521;51.900;4.748;2022-11-14T17:45:55;8.77;;;4.05;;
74963;SDS011;63521;51.900;4.748;2022-11-14T17:48:21;7.32;;;4.05;;
74963;SDS011;63521;51.900;4.748;2022-11-14T17:50:47;8.65;;;3.72;;
74963;SDS011;63521;51.900;4.748;2022-11-14T17:53:12;8.38;;;3.85;;
74963;SDS011;63521;51.900;4.748;2022-11-14T17:55:38;9.07;;;4.25;;
74963;SDS011;63521;51.900;4.748;2022-11-14T17:58:03;8.13;;;4.07;;
74963;SDS011;63521;51.900;4.748;2022-11-14T18:00:29;6.47;;;3.97;;
74963;SDS011;63521;51.900;4.748;2022-11-14T18:02:54;7.30;;;4.05;;
74963;SDS011;63521;51.900;4.748;2022-11-14T18:05:19;7.60;;;3.67;;
74963;SDS011;63521;51.900;4.748;2022-11-14T18:07:46;6.70;;;3.70;;
74963;SDS011;63521;51.900;4.748;2022-11-14T18:10:11;5.53;;;3.38;;
74963;SDS011;63521;51.900;4.748;2022-11-14T18:12:37;6.85;;;3.70;;
74963;SDS011;63521;51.900;4.748;2022-11-14T18:15:02;7.95;;;3.50;;
74963;SDS011;63521;51.900;4.748;2022-11-14T18:17:28;6.07;;;3.38;;
74963;SDS011;63521;51.900;4.748;2022-11-14T18:19:53;7.20;;;3.53;;
74963;SDS011;63521;51.900;4.748;2022-11-14T18:22:20;7.07;;;4.07;;
74963;SDS011;63521;51.900;4.748;2022-11-14T18:24:45;7.65;;;3.72;;
74963;SDS011;63521;51.900;4.748;2022-11-14T18:27:12;5.80;;;3.45;;
74963;SDS011;63521;51.900;4.748;2022-11-14T18:29:40;7.13;;;3.42;;
74963;SDS011;63521;51.900;4.748;2022-11-14T18:32:06;5.05;;;3.17;;
74963;SDS011;63521;51.900;4.748;2022-11-14T18:34:31;7.50;;;4.22;;
74963;SDS011;63521;51.900;4.748;2022-11-14T18:36:57;6.78;;;3.47;;